sensor_id;sensor_type;location;lat;lon;timestamp;temperature;humidity
59301;DHT22;45073;52.740;6.784;2024-02-28T00:01:52;3.40;99.90
59301;DHT22;45073;52.740;6.784;2024-02-28T00:04:18;3.40;99.90
59301;DHT22;45073;52.740;6.784;2024-02-28T00:06:44;3.40;99.90
59301;DHT22;45073;52.740;6.784;2024-02-28T00:09:12;3.30;99.90
59301;DHT22;45073;52.740;6.784;2024-02-28T00:11:46;3.30;99.90
59301;DHT22;45073;52.740;6.784;2024-02-28T00:14:12;3.30;99.90
59301;DHT22;45073;52.740;6.784;2024-02-28T00:16:45;3.30;99.90
59301;DHT22;45073;52.740;6.784;2024-02-28T00:19:11;3.20;99.90
59301;DHT22;45073;52.740;6.784;2024-02-28T00:21:38;3.30;99.90
59301;DHT22;45073;52.740;6.784;2024-02-28T00:24:04;3.20;99.90
59301;DHT22;45073;52.740;6.784;2024-02-28T00:26:30;3.20;99.90
59301;DHT22;45073;52.740;6.784;2024-02-28T00:28:55;3.20;99.90
59301;DHT22;45073;52.740;6.784;2024-02-28T00:31:21;3.20;99.90
59301;DHT22;45073;52.740;6.784;2024-02-28T00:33:47;3.20;99.90
59301;DHT22;45073;52.740;6.784;2024-02-28T00:36:13;3.10;99.90
59301;DHT22;45073;52.740;6.784;2024-02-28T00:38:40;3.10;99.90
59301;DHT22;45073;52.740;6.784;2024-02-28T00:41:06;3.00;99.90
59301;DHT22;45073;52.740;6.784;2024-02-28T00:43:32;3.00;99.90
59301;DHT22;45073;52.740;6.784;2024-02-28T00:45:57;3.00;99.90
59301;DHT22;45073;52.740;6.784;2024-02-28T00:48:24;3.00;99.90
59301;DHT22;45073;52.740;6.784;2024-02-28T00:50:50;3.00;99.90
59301;DHT22;45073;52.740;6.784;2024-02-28T00:53:15;3.00;99.90
59301;DHT22;45073;52.740;6.784;2024-02-28T00:55:41;3.00;99.90
59301;DHT22;45073;52.740;6.784;2024-02-28T00:58:07;2.90;99.90
59301;DHT22;45073;52.740;6.784;2024-02-28T01:00:33;2.90;99.90
59301;DHT22;45073;52.740;6.784;2024-02-28T01:02:58;2.90;99.90
59301;DHT22;45073;52.740;6.784;2024-02-28T01:05:24;2.90;99.90
59301;DHT22;45073;52.740;6.784;2024-02-28T01:07:49;2.80;99.90
59301;DHT22;45073;52.740;6.784;2024-02-28T01:10:15;2.90;99.90
59301;DHT22;45073;52.740;6.784;2024-02-28T01:12:41;2.90;99.90
59301;DHT22;45073;52.740;6.784;2024-02-28T01:15:06;2.80;99.90
59301;DHT22;45073;52.740;6.784;2024-02-28T01:17:32;2.80;99.90
59301;DHT22;45073;52.740;6.784;2024-02-28T01:19:58;2.80;99.90
59301;DHT22;45073;52.740;6.784;2024-02-28T01:22:24;2.80;99.90
59301;DHT22;45073;52.740;6.784;2024-02-28T01:24:49;2.80;99.90
59301;DHT22;45073;52.740;6.784;2024-02-28T01:27:15;2.80;99.90
59301;DHT22;45073;52.740;6.784;2024-02-28T01:29:41;2.80;99.90
59301;DHT22;45073;52.740;6.784;2024-02-28T01:32:06;2.80;99.90
59301;DHT22;45073;52.740;6.784;2024-02-28T01:34:32;2.70;99.90
59301;DHT22;45073;52.740;6.784;2024-02-28T01:36:58;2.80;99.90
59301;DHT22;45073;52.740;6.784;2024-02-28T01:39:23;2.80;99.90
59301;DHT22;45073;52.740;6.784;2024-02-28T01:41:53;2.80;99.90
59301;DHT22;45073;52.740;6.784;2024-02-28T01:44:19;2.80;99.90
59301;DHT22;45073;52.740;6.784;2024-02-28T01:46:45;2.80;99.90
59301;DHT22;45073;52.740;6.784;2024-02-28T01:49:11;2.80;99.90
59301;DHT22;45073;52.740;6.784;2024-02-28T01:51:37;2.80;99.90
59301;DHT22;45073;52.740;6.784;2024-02-28T01:54:03;2.80;99.90
59301;DHT22;45073;52.740;6.784;2024-02-28T01:56:29;2.80;99.90
59301;DHT22;45073;52.740;6.784;2024-02-28T01:58:56;2.90;99.90
59301;DHT22;45073;52.740;6.784;2024-02-28T02:01:22;2.90;99.90
59301;DHT22;45073;52.740;6.784;2024-02-28T02:03:47;2.80;99.90
59301;DHT22;45073;52.740;6.784;2024-02-28T02:06:14;2.80;99.90
59301;DHT22;45073;52.740;6.784;2024-02-28T02:08:39;2.90;99.90
59301;DHT22;45073;52.740;6.784;2024-02-28T02:11:05;2.90;99.90
59301;DHT22;45073;52.740;6.784;2024-02-28T02:13:31;2.80;99.90
59301;DHT22;45073;52.740;6.784;2024-02-28T02:15:57;2.80;99.90
59301;DHT22;45073;52.740;6.784;2024-02-28T02:18:23;2.80;99.90
59301;DHT22;45073;52.740;6.784;2024-02-28T02:20:55;2.80;99.90
59301;DHT22;45073;52.740;6.784;2024-02-28T02:23:23;2.80;99.90
59301;DHT22;45073;52.740;6.784;2024-02-28T02:25:49;2.80;99.90
59301;DHT22;45073;52.740;6.784;2024-02-28T02:28:15;2.80;99.90
59301;DHT22;45073;52.740;6.784;2024-02-28T02:30:41;2.80;99.90
59301;DHT22;45073;52.740;6.784;2024-02-28T02:33:10;2.80;99.90
59301;DHT22;45073;52.740;6.784;2024-02-28T02:35:36;2.80;99.90
59301;DHT22;45073;52.740;6.784;2024-02-28T02:38:02;2.80;99.90
59301;DHT22;45073;52.740;6.784;2024-02-28T02:40:28;2.80;99.90
59301;DHT22;45073;52.740;6.784;2024-02-28T02:42:53;2.80;99.90
59301;DHT22;45073;52.740;6.784;2024-02-28T02:45:19;2.80;99.90
59301;DHT22;45073;52.740;6.784;2024-02-28T02:47:45;2.80;99.90
59301;DHT22;45073;52.740;6.784;2024-02-28T02:50:10;2.80;99.90
59301;DHT22;45073;52.740;6.784;2024-02-28T02:52:36;2.80;99.90
59301;DHT22;45073;52.740;6.784;2024-02-28T02:55:02;2.80;99.90
59301;DHT22;45073;52.740;6.784;2024-02-28T02:57:28;2.80;99.90
59301;DHT22;45073;52.740;6.784;2024-02-28T02:59:56;2.80;99.90
59301;DHT22;45073;52.740;6.784;2024-02-28T03:02:21;2.80;99.90
59301;DHT22;45073;52.740;6.784;2024-02-28T03:04:47;2.80;99.90
59301;DHT22;45073;52.740;6.784;2024-02-28T03:07:13;2.80;99.90
59301;DHT22;45073;52.740;6.784;2024-02-28T03:09:38;2.80;99.90
59301;DHT22;45073;52.740;6.784;2024-02-28T03:12:04;2.80;99.90
59301;DHT22;45073;52.740;6.784;2024-02-28T03:14:29;2.80;99.90
59301;DHT22;45073;52.740;6.784;2024-02-28T03:16:55;2.80;99.90
59301;DHT22;45073;52.740;6.784;2024-02-28T03:19:22;2.80;99.90
59301;DHT22;45073;52.740;6.784;2024-02-28T03:21:48;2.70;99.90
59301;DHT22;45073;52.740;6.784;2024-02-28T03:24:13;2.70;99.90
59301;DHT22;45073;52.740;6.784;2024-02-28T03:26:39;2.70;99.90
59301;DHT22;45073;52.740;6.784;2024-02-28T03:29:04;2.70;99.90
59301;DHT22;45073;52.740;6.784;2024-02-28T03:31:30;2.70;99.90
59301;DHT22;45073;52.740;6.784;2024-02-28T03:33:55;2.70;99.90
59301;DHT22;45073;52.740;6.784;2024-02-28T03:36:21;2.70;99.90
59301;DHT22;45073;52.740;6.784;2024-02-28T03:38:47;2.70;99.90
59301;DHT22;45073;52.740;6.784;2024-02-28T03:41:12;2.70;99.90
59301;DHT22;45073;52.740;6.784;2024-02-28T03:43:38;2.70;99.90
59301;DHT22;45073;52.740;6.784;2024-02-28T03:46:04;2.70;99.90
59301;DHT22;45073;52.740;6.784;2024-02-28T03:48:29;2.70;99.90
59301;DHT22;45073;52.740;6.784;2024-02-28T03:50:55;2.70;99.90
59301;DHT22;45073;52.740;6.784;2024-02-28T03:53:20;2.70;99.90
59301;DHT22;45073;52.740;6.784;2024-02-28T03:55:46;2.80;99.90
59301;DHT22;45073;52.740;6.784;2024-02-28T03:58:12;2.80;99.90
59301;DHT22;45073;52.740;6.784;2024-02-28T04:00:38;2.80;99.90
59301;DHT22;45073;52.740;6.784;2024-02-28T04:03:05;2.70;99.90
59301;DHT22;45073;52.740;6.784;2024-02-28T04:05:30;2.80;99.90
59301;DHT22;45073;52.740;6.784;2024-02-28T04:07:56;2.80;99.90
59301;DHT22;45073;52.740;6.784;2024-02-28T04:10:22;2.80;99.90
59301;DHT22;45073;52.740;6.784;2024-02-28T04:12:47;2.80;99.90
59301;DHT22;45073;52.740;6.784;2024-02-28T04:15:14;2.80;99.90
59301;DHT22;45073;52.740;6.784;2024-02-28T04:17:40;2.80;99.90
59301;DHT22;45073;52.740;6.784;2024-02-28T04:20:12;2.80;99.90
59301;DHT22;45073;52.740;6.784;2024-02-28T04:22:39;2.80;99.90
59301;DHT22;45073;52.740;6.784;2024-02-28T04:25:08;2.80;99.90
59301;DHT22;45073;52.740;6.784;2024-02-28T04:27:35;2.80;99.90
59301;DHT22;45073;52.740;6.784;2024-02-28T04:30:01;2.90;99.90
59301;DHT22;45073;52.740;6.784;2024-02-28T04:32:26;2.80;99.90
59301;DHT22;45073;52.740;6.784;2024-02-28T04:34:52;2.90;99.90
59301;DHT22;45073;52.740;6.784;2024-02-28T04:37:17;2.90;99.90
59301;DHT22;45073;52.740;6.784;2024-02-28T04:39:43;2.90;99.90
59301;DHT22;45073;52.740;6.784;2024-02-28T04:42:08;2.90;99.90
59301;DHT22;45073;52.740;6.784;2024-02-28T04:44:34;2.90;99.90
59301;DHT22;45073;52.740;6.784;2024-02-28T04:47:00;2.90;99.90
59301;DHT22;45073;52.740;6.784;2024-02-28T04:49:26;3.00;99.90
59301;DHT22;45073;52.740;6.784;2024-02-28T04:51:51;3.00;99.90
59301;DHT22;45073;52.740;6.784;2024-02-28T04:54:18;3.00;99.90
59301;DHT22;45073;52.740;6.784;2024-02-28T04:56:44;3.00;99.90
59301;DHT22;45073;52.740;6.784;2024-02-28T04:59:11;3.00;99.90
59301;DHT22;45073;52.740;6.784;2024-02-28T05:01:38;3.00;99.90
59301;DHT22;45073;52.740;6.784;2024-02-28T05:04:11;3.00;99.90
59301;DHT22;45073;52.740;6.784;2024-02-28T05:06:37;3.00;99.90
59301;DHT22;45073;52.740;6.784;2024-02-28T05:09:02;3.00;99.90
59301;DHT22;45073;52.740;6.784;2024-02-28T05:11:28;3.00;99.90
59301;DHT22;45073;52.740;6.784;2024-02-28T05:13:53;3.00;99.90
59301;DHT22;45073;52.740;6.784;2024-02-28T05:16:19;3.10;99.90
59301;DHT22;45073;52.740;6.784;2024-02-28T05:18:45;3.10;99.90
59301;DHT22;45073;52.740;6.784;2024-02-28T05:21:11;3.10;99.90
59301;DHT22;45073;52.740;6.784;2024-02-28T05:23:37;3.10;99.90
59301;DHT22;45073;52.740;6.784;2024-02-28T05:26:03;3.10;99.90
59301;DHT22;45073;52.740;6.784;2024-02-28T05:28:32;3.10;99.90
59301;DHT22;45073;52.740;6.784;2024-02-28T05:31:25;3.10;99.90
59301;DHT22;45073;52.740;6.784;2024-02-28T05:33:54;3.10;99.90
59301;DHT22;45073;52.740;6.784;2024-02-28T05:36:22;3.10;99.90
59301;DHT22;45073;52.740;6.784;2024-02-28T05:38:48;3.20;99.90
59301;DHT22;45073;52.740;6.784;2024-02-28T05:41:15;3.20;99.90
59301;DHT22;45073;52.740;6.784;2024-02-28T05:43:41;3.20;99.90
59301;DHT22;45073;52.740;6.784;2024-02-28T05:46:07;3.20;99.90
59301;DHT22;45073;52.740;6.784;2024-02-28T05:48:32;3.20;99.90
59301;DHT22;45073;52.740;6.784;2024-02-28T05:51:00;3.20;99.90
59301;DHT22;45073;52.740;6.784;2024-02-28T05:53:26;3.20;99.90
59301;DHT22;45073;52.740;6.784;2024-02-28T05:55:55;3.20;99.90
59301;DHT22;45073;52.740;6.784;2024-02-28T05:58:22;3.30;99.90
59301;DHT22;45073;52.740;6.784;2024-02-28T06:00:49;3.20;99.90
59301;DHT22;45073;52.740;6.784;2024-02-28T06:03:14;3.30;99.90
59301;DHT22;45073;52.740;6.784;2024-02-28T06:05:40;3.30;99.90
59301;DHT22;45073;52.740;6.784;2024-02-28T06:08:06;3.30;99.90
59301;DHT22;45073;52.740;6.784;2024-02-28T06:10:32;3.30;99.90
59301;DHT22;45073;52.740;6.784;2024-02-28T06:12:57;3.30;99.90
59301;DHT22;45073;52.740;6.784;2024-02-28T06:15:23;3.30;99.90
59301;DHT22;45073;52.740;6.784;2024-02-28T06:17:48;3.30;99.90
59301;DHT22;45073;52.740;6.784;2024-02-28T06:20:14;3.30;99.90
59301;DHT22;45073;52.740;6.784;2024-02-28T06:22:40;3.40;99.90
59301;DHT22;45073;52.740;6.784;2024-02-28T06:25:06;3.40;99.90
59301;DHT22;45073;52.740;6.784;2024-02-28T06:27:39;3.30;99.90
59301;DHT22;45073;52.740;6.784;2024-02-28T06:30:06;3.40;99.90
59301;DHT22;45073;52.740;6.784;2024-02-28T06:32:32;3.40;99.90
59301;DHT22;45073;52.740;6.784;2024-02-28T06:34:58;3.40;99.90
59301;DHT22;45073;52.740;6.784;2024-02-28T06:37:23;3.40;99.90
59301;DHT22;45073;52.740;6.784;2024-02-28T06:39:49;3.40;99.90
59301;DHT22;45073;52.740;6.784;2024-02-28T06:42:14;3.40;99.90
59301;DHT22;45073;52.740;6.784;2024-02-28T06:44:40;3.50;99.90
59301;DHT22;45073;52.740;6.784;2024-02-28T06:47:07;3.40;99.90
59301;DHT22;45073;52.740;6.784;2024-02-28T06:49:33;3.40;99.90
59301;DHT22;45073;52.740;6.784;2024-02-28T06:51:58;3.40;99.90
59301;DHT22;45073;52.740;6.784;2024-02-28T06:54:27;3.50;99.90
59301;DHT22;45073;52.740;6.784;2024-02-28T06:56:53;3.50;99.90
59301;DHT22;45073;52.740;6.784;2024-02-28T06:59:19;3.50;99.90
59301;DHT22;45073;52.740;6.784;2024-02-28T07:01:44;3.50;99.90
59301;DHT22;45073;52.740;6.784;2024-02-28T07:04:10;3.50;99.90
59301;DHT22;45073;52.740;6.784;2024-02-28T07:06:35;3.60;99.90
59301;DHT22;45073;52.740;6.784;2024-02-28T07:09:01;3.60;99.90
59301;DHT22;45073;52.740;6.784;2024-02-28T07:11:27;3.60;99.90
59301;DHT22;45073;52.740;6.784;2024-02-28T07:13:52;3.60;99.90
59301;DHT22;45073;52.740;6.784;2024-02-28T07:16:18;3.60;99.90
59301;DHT22;45073;52.740;6.784;2024-02-28T07:18:44;3.60;99.90
59301;DHT22;45073;52.740;6.784;2024-02-28T07:21:09;3.70;99.90
59301;DHT22;45073;52.740;6.784;2024-02-28T07:23:35;3.70;99.90
59301;DHT22;45073;52.740;6.784;2024-02-28T07:26:03;3.70;99.90
59301;DHT22;45073;52.740;6.784;2024-02-28T07:28:29;3.70;99.90
59301;DHT22;45073;52.740;6.784;2024-02-28T07:30:56;3.80;99.90
59301;DHT22;45073;52.740;6.784;2024-02-28T07:33:22;3.70;99.90
59301;DHT22;45073;52.740;6.784;2024-02-28T07:35:48;3.70;99.90
59301;DHT22;45073;52.740;6.784;2024-02-28T07:38:14;3.80;99.90
59301;DHT22;45073;52.740;6.784;2024-02-28T07:40:39;3.80;99.90
59301;DHT22;45073;52.740;6.784;2024-02-28T07:43:05;3.80;99.90
59301;DHT22;45073;52.740;6.784;2024-02-28T07:45:31;3.80;99.90
59301;DHT22;45073;52.740;6.784;2024-02-28T07:47:56;3.80;99.90
59301;DHT22;45073;52.740;6.784;2024-02-28T07:50:22;3.80;99.90
59301;DHT22;45073;52.740;6.784;2024-02-28T07:52:48;3.80;99.90
59301;DHT22;45073;52.740;6.784;2024-02-28T07:55:13;3.80;99.90
59301;DHT22;45073;52.740;6.784;2024-02-28T07:57:39;3.90;99.90
59301;DHT22;45073;52.740;6.784;2024-02-28T08:00:05;3.90;99.90
59301;DHT22;45073;52.740;6.784;2024-02-28T08:02:30;3.90;99.90
59301;DHT22;45073;52.740;6.784;2024-02-28T08:04:56;3.90;99.90
59301;DHT22;45073;52.740;6.784;2024-02-28T08:07:22;3.90;99.90
59301;DHT22;45073;52.740;6.784;2024-02-28T08:09:48;3.90;99.90
59301;DHT22;45073;52.740;6.784;2024-02-28T08:12:13;4.00;99.90
59301;DHT22;45073;52.740;6.784;2024-02-28T08:14:39;4.00;99.90
59301;DHT22;45073;52.740;6.784;2024-02-28T08:17:04;4.10;99.90
59301;DHT22;45073;52.740;6.784;2024-02-28T08:19:30;4.00;99.90
59301;DHT22;45073;52.740;6.784;2024-02-28T08:21:56;4.10;99.90
59301;DHT22;45073;52.740;6.784;2024-02-28T08:24:21;4.10;99.90
59301;DHT22;45073;52.740;6.784;2024-02-28T08:26:47;4.20;99.90
59301;DHT22;45073;52.740;6.784;2024-02-28T08:29:13;4.20;99.90
59301;DHT22;45073;52.740;6.784;2024-02-28T08:31:43;4.20;99.90
59301;DHT22;45073;52.740;6.784;2024-02-28T08:34:09;4.30;99.90
59301;DHT22;45073;52.740;6.784;2024-02-28T08:36:35;4.30;99.90
59301;DHT22;45073;52.740;6.784;2024-02-28T08:39:02;4.30;99.90
59301;DHT22;45073;52.740;6.784;2024-02-28T08:41:33;4.30;99.90
59301;DHT22;45073;52.740;6.784;2024-02-28T08:43:59;4.30;99.90
59301;DHT22;45073;52.740;6.784;2024-02-28T08:46:25;4.30;99.90
59301;DHT22;45073;52.740;6.784;2024-02-28T08:48:50;4.30;99.90
59301;DHT22;45073;52.740;6.784;2024-02-28T08:51:16;4.30;99.90
59301;DHT22;45073;52.740;6.784;2024-02-28T08:53:41;4.30;99.90
59301;DHT22;45073;52.740;6.784;2024-02-28T08:56:07;4.30;99.90
59301;DHT22;45073;52.740;6.784;2024-02-28T08:58:33;4.40;99.90
59301;DHT22;45073;52.740;6.784;2024-02-28T09:00:58;4.40;99.90
59301;DHT22;45073;52.740;6.784;2024-02-28T09:03:24;4.40;99.90
59301;DHT22;45073;52.740;6.784;2024-02-28T09:05:49;4.40;99.90
59301;DHT22;45073;52.740;6.784;2024-02-28T09:08:15;4.40;99.90
59301;DHT22;45073;52.740;6.784;2024-02-28T09:10:41;4.50;99.90
59301;DHT22;45073;52.740;6.784;2024-02-28T09:13:06;4.50;99.90
59301;DHT22;45073;52.740;6.784;2024-02-28T09:15:33;4.50;99.90
59301;DHT22;45073;52.740;6.784;2024-02-28T09:17:59;4.50;99.90
59301;DHT22;45073;52.740;6.784;2024-02-28T09:20:26;4.60;99.90
59301;DHT22;45073;52.740;6.784;2024-02-28T09:22:52;4.60;99.90
59301;DHT22;45073;52.740;6.784;2024-02-28T09:25:17;4.60;99.90
59301;DHT22;45073;52.740;6.784;2024-02-28T09:27:44;4.70;99.90
59301;DHT22;45073;52.740;6.784;2024-02-28T09:30:09;4.70;99.90
59301;DHT22;45073;52.740;6.784;2024-02-28T09:32:35;4.80;99.90
59301;DHT22;45073;52.740;6.784;2024-02-28T09:35:03;4.80;99.90
59301;DHT22;45073;52.740;6.784;2024-02-28T09:37:30;4.80;99.90
59301;DHT22;45073;52.740;6.784;2024-02-28T09:39:55;4.90;99.90
59301;DHT22;45073;52.740;6.784;2024-02-28T09:42:21;4.90;99.90
59301;DHT22;45073;52.740;6.784;2024-02-28T09:44:46;5.00;99.90
59301;DHT22;45073;52.740;6.784;2024-02-28T09:47:13;5.00;99.90
59301;DHT22;45073;52.740;6.784;2024-02-28T09:49:39;5.00;99.90
59301;DHT22;45073;52.740;6.784;2024-02-28T09:52:07;5.10;99.90
59301;DHT22;45073;52.740;6.784;2024-02-28T09:54:32;5.10;99.90
59301;DHT22;45073;52.740;6.784;2024-02-28T09:56:58;5.10;99.90
59301;DHT22;45073;52.740;6.784;2024-02-28T09:59:24;5.20;99.90
59301;DHT22;45073;52.740;6.784;2024-02-28T10:01:56;5.30;99.90
59301;DHT22;45073;52.740;6.784;2024-02-28T10:04:25;5.40;99.90
59301;DHT22;45073;52.740;6.784;2024-02-28T10:06:51;5.50;99.90
59301;DHT22;45073;52.740;6.784;2024-02-28T10:09:17;5.60;99.90
59301;DHT22;45073;52.740;6.784;2024-02-28T10:11:43;5.70;99.90
59301;DHT22;45073;52.740;6.784;2024-02-28T10:14:14;5.80;99.90
59301;DHT22;45073;52.740;6.784;2024-02-28T10:16:42;5.90;99.90
59301;DHT22;45073;52.740;6.784;2024-02-28T10:19:08;6.00;99.90
59301;DHT22;45073;52.740;6.784;2024-02-28T10:21:33;6.00;99.90
59301;DHT22;45073;52.740;6.784;2024-02-28T10:23:59;6.20;99.90
59301;DHT22;45073;52.740;6.784;2024-02-28T10:26:25;6.20;99.90
59301;DHT22;45073;52.740;6.784;2024-02-28T10:28:51;6.20;99.90
59301;DHT22;45073;52.740;6.784;2024-02-28T10:31:17;6.30;99.90
59301;DHT22;45073;52.740;6.784;2024-02-28T10:33:43;6.30;99.90
59301;DHT22;45073;52.740;6.784;2024-02-28T10:36:09;6.30;99.90
59301;DHT22;45073;52.740;6.784;2024-02-28T10:38:34;6.30;99.90
59301;DHT22;45073;52.740;6.784;2024-02-28T10:41:02;6.30;99.90
59301;DHT22;45073;52.740;6.784;2024-02-28T10:43:29;6.40;99.90
59301;DHT22;45073;52.740;6.784;2024-02-28T10:45:58;6.40;99.90
59301;DHT22;45073;52.740;6.784;2024-02-28T10:48:25;6.40;99.90
59301;DHT22;45073;52.740;6.784;2024-02-28T10:50:51;6.40;99.90
59301;DHT22;45073;52.740;6.784;2024-02-28T10:53:21;6.40;99.90
59301;DHT22;45073;52.740;6.784;2024-02-28T10:55:48;6.40;99.90
59301;DHT22;45073;52.740;6.784;2024-02-28T10:58:18;6.40;99.90
59301;DHT22;45073;52.740;6.784;2024-02-28T11:00:48;6.50;99.90
59301;DHT22;45073;52.740;6.784;2024-02-28T11:03:17;6.40;99.90
59301;DHT22;45073;52.740;6.784;2024-02-28T11:05:44;6.50;99.90
59301;DHT22;45073;52.740;6.784;2024-02-28T11:08:21;6.50;99.90
59301;DHT22;45073;52.740;6.784;2024-02-28T11:10:47;6.60;99.90
59301;DHT22;45073;52.740;6.784;2024-02-28T11:13:26;6.60;99.90
59301;DHT22;45073;52.740;6.784;2024-02-28T11:15:53;6.70;99.90
59301;DHT22;45073;52.740;6.784;2024-02-28T11:18:20;6.70;99.90
59301;DHT22;45073;52.740;6.784;2024-02-28T11:20:46;6.70;99.90
59301;DHT22;45073;52.740;6.784;2024-02-28T11:23:13;6.80;99.90
59301;DHT22;45073;52.740;6.784;2024-02-28T11:25:40;6.80;99.90
59301;DHT22;45073;52.740;6.784;2024-02-28T11:28:06;6.80;99.90
59301;DHT22;45073;52.740;6.784;2024-02-28T11:30:32;6.90;99.90
59301;DHT22;45073;52.740;6.784;2024-02-28T11:32:58;6.90;99.90
59301;DHT22;45073;52.740;6.784;2024-02-28T11:35:26;6.90;99.90
59301;DHT22;45073;52.740;6.784;2024-02-28T11:37:54;6.90;99.90
59301;DHT22;45073;52.740;6.784;2024-02-28T11:40:25;7.00;99.90
59301;DHT22;45073;52.740;6.784;2024-02-28T11:42:54;6.90;99.90
59301;DHT22;45073;52.740;6.784;2024-02-28T11:45:19;6.90;99.90
59301;DHT22;45073;52.740;6.784;2024-02-28T11:47:45;6.90;99.90
59301;DHT22;45073;52.740;6.784;2024-02-28T11:50:11;6.90;99.90
59301;DHT22;45073;52.740;6.784;2024-02-28T11:52:37;7.00;99.90
59301;DHT22;45073;52.740;6.784;2024-02-28T11:55:04;7.00;99.90
59301;DHT22;45073;52.740;6.784;2024-02-28T11:57:29;7.10;99.90
59301;DHT22;45073;52.740;6.784;2024-02-28T12:00:05;7.10;99.90
59301;DHT22;45073;52.740;6.784;2024-02-28T12:02:31;7.20;99.90
59301;DHT22;45073;52.740;6.784;2024-02-28T12:05:01;7.20;99.90
59301;DHT22;45073;52.740;6.784;2024-02-28T12:07:27;7.30;99.90
59301;DHT22;45073;52.740;6.784;2024-02-28T12:09:54;7.30;99.90
59301;DHT22;45073;52.740;6.784;2024-02-28T12:12:21;7.30;99.90
59301;DHT22;45073;52.740;6.784;2024-02-28T12:14:46;7.40;99.90
59301;DHT22;45073;52.740;6.784;2024-02-28T12:17:16;7.50;99.90
59301;DHT22;45073;52.740;6.784;2024-02-28T12:19:42;7.50;99.90
59301;DHT22;45073;52.740;6.784;2024-02-28T12:22:08;7.50;99.90
59301;DHT22;45073;52.740;6.784;2024-02-28T12:24:34;7.50;99.90
59301;DHT22;45073;52.740;6.784;2024-02-28T12:27:00;7.50;99.90
59301;DHT22;45073;52.740;6.784;2024-02-28T12:29:25;7.50;99.90
59301;DHT22;45073;52.740;6.784;2024-02-28T12:31:51;7.50;99.90
59301;DHT22;45073;52.740;6.784;2024-02-28T12:34:17;7.50;99.90
59301;DHT22;45073;52.740;6.784;2024-02-28T12:36:42;7.50;99.90
59301;DHT22;45073;52.740;6.784;2024-02-28T12:39:08;7.50;99.90
59301;DHT22;45073;52.740;6.784;2024-02-28T12:41:38;7.50;99.90
59301;DHT22;45073;52.740;6.784;2024-02-28T12:44:07;7.50;99.90
59301;DHT22;45073;52.740;6.784;2024-02-28T12:46:34;7.50;99.90
59301;DHT22;45073;52.740;6.784;2024-02-28T12:49:00;7.50;99.90
59301;DHT22;45073;52.740;6.784;2024-02-28T12:51:43;7.60;99.90
59301;DHT22;45073;52.740;6.784;2024-02-28T12:54:10;7.50;99.90
59301;DHT22;45073;52.740;6.784;2024-02-28T12:56:38;7.50;99.90
59301;DHT22;45073;52.740;6.784;2024-02-28T12:59:05;7.50;99.90
59301;DHT22;45073;52.740;6.784;2024-02-28T13:01:33;7.40;99.90
59301;DHT22;45073;52.740;6.784;2024-02-28T13:03:58;7.40;99.90
59301;DHT22;45073;52.740;6.784;2024-02-28T13:06:24;7.40;99.90
59301;DHT22;45073;52.740;6.784;2024-02-28T13:08:50;7.40;99.90
59301;DHT22;45073;52.740;6.784;2024-02-28T13:11:22;7.40;99.90
59301;DHT22;45073;52.740;6.784;2024-02-28T13:13:49;7.40;99.90
59301;DHT22;45073;52.740;6.784;2024-02-28T13:16:18;7.40;99.90
59301;DHT22;45073;52.740;6.784;2024-02-28T13:18:45;7.40;99.90
59301;DHT22;45073;52.740;6.784;2024-02-28T13:21:11;7.50;99.90
59301;DHT22;45073;52.740;6.784;2024-02-28T13:23:37;7.50;99.90
59301;DHT22;45073;52.740;6.784;2024-02-28T13:26:04;7.50;99.90
59301;DHT22;45073;52.740;6.784;2024-02-28T13:28:30;7.50;99.90
59301;DHT22;45073;52.740;6.784;2024-02-28T13:30:59;7.50;99.90
59301;DHT22;45073;52.740;6.784;2024-02-28T13:33:26;7.50;99.90
59301;DHT22;45073;52.740;6.784;2024-02-28T13:35:52;7.50;99.90
59301;DHT22;45073;52.740;6.784;2024-02-28T13:38:18;7.60;99.90
59301;DHT22;45073;52.740;6.784;2024-02-28T13:40:48;7.60;99.90
59301;DHT22;45073;52.740;6.784;2024-02-28T13:43:15;7.60;99.90
59301;DHT22;45073;52.740;6.784;2024-02-28T13:45:46;7.60;99.90
59301;DHT22;45073;52.740;6.784;2024-02-28T13:48:17;7.60;99.90
59301;DHT22;45073;52.740;6.784;2024-02-28T13:50:44;7.70;99.90
59301;DHT22;45073;52.740;6.784;2024-02-28T13:53:10;7.70;99.90
59301;DHT22;45073;52.740;6.784;2024-02-28T13:55:35;7.70;99.90
59301;DHT22;45073;52.740;6.784;2024-02-28T13:58:01;7.80;99.90
59301;DHT22;45073;52.740;6.784;2024-02-28T14:00:26;7.80;99.90
59301;DHT22;45073;52.740;6.784;2024-02-28T14:02:52;7.80;99.90
59301;DHT22;45073;52.740;6.784;2024-02-28T14:05:18;7.80;99.90
59301;DHT22;45073;52.740;6.784;2024-02-28T14:07:44;7.80;99.90
59301;DHT22;45073;52.740;6.784;2024-02-28T14:10:09;7.80;99.90
59301;DHT22;45073;52.740;6.784;2024-02-28T14:12:36;7.80;99.90
59301;DHT22;45073;52.740;6.784;2024-02-28T14:15:03;7.80;99.90
59301;DHT22;45073;52.740;6.784;2024-02-28T14:17:30;7.80;99.90
59301;DHT22;45073;52.740;6.784;2024-02-28T14:19:56;7.80;99.90
59301;DHT22;45073;52.740;6.784;2024-02-28T14:22:21;7.70;99.90
59301;DHT22;45073;52.740;6.784;2024-02-28T14:24:47;7.80;99.90
59301;DHT22;45073;52.740;6.784;2024-02-28T14:27:13;7.80;99.90
59301;DHT22;45073;52.740;6.784;2024-02-28T14:29:39;7.80;99.90
59301;DHT22;45073;52.740;6.784;2024-02-28T14:32:05;7.80;99.90
59301;DHT22;45073;52.740;6.784;2024-02-28T14:34:32;7.80;99.90
59301;DHT22;45073;52.740;6.784;2024-02-28T14:36:58;7.80;99.90
59301;DHT22;45073;52.740;6.784;2024-02-28T14:39:23;7.80;99.90
59301;DHT22;45073;52.740;6.784;2024-02-28T14:41:49;7.80;99.90
59301;DHT22;45073;52.740;6.784;2024-02-28T14:44:15;7.80;99.90
59301;DHT22;45073;52.740;6.784;2024-02-28T14:46:42;7.80;99.90
59301;DHT22;45073;52.740;6.784;2024-02-28T14:49:09;7.90;99.90
59301;DHT22;45073;52.740;6.784;2024-02-28T14:51:35;7.90;99.90
59301;DHT22;45073;52.740;6.784;2024-02-28T14:54:01;7.90;99.90
59301;DHT22;45073;52.740;6.784;2024-02-28T14:56:27;7.90;99.90
59301;DHT22;45073;52.740;6.784;2024-02-28T14:58:55;7.90;99.90
59301;DHT22;45073;52.740;6.784;2024-02-28T15:01:22;7.90;99.90
59301;DHT22;45073;52.740;6.784;2024-02-28T15:03:50;8.00;99.90
59301;DHT22;45073;52.740;6.784;2024-02-28T15:06:15;8.00;99.90
59301;DHT22;45073;52.740;6.784;2024-02-28T15:08:41;8.00;99.90
59301;DHT22;45073;52.740;6.784;2024-02-28T15:11:08;8.00;99.90
59301;DHT22;45073;52.740;6.784;2024-02-28T15:13:33;8.00;99.90
59301;DHT22;45073;52.740;6.784;2024-02-28T15:15:59;8.00;99.90
59301;DHT22;45073;52.740;6.784;2024-02-28T15:18:25;8.00;99.90
59301;DHT22;45073;52.740;6.784;2024-02-28T15:20:51;8.00;99.90
59301;DHT22;45073;52.740;6.784;2024-02-28T15:23:19;8.00;99.90
59301;DHT22;45073;52.740;6.784;2024-02-28T15:25:47;8.00;99.90
59301;DHT22;45073;52.740;6.784;2024-02-28T15:28:13;8.00;99.90
59301;DHT22;45073;52.740;6.784;2024-02-28T15:30:38;8.00;99.90
59301;DHT22;45073;52.740;6.784;2024-02-28T15:33:04;8.00;99.90
59301;DHT22;45073;52.740;6.784;2024-02-28T15:35:30;8.00;99.90
59301;DHT22;45073;52.740;6.784;2024-02-28T15:37:55;8.10;99.90
59301;DHT22;45073;52.740;6.784;2024-02-28T15:40:21;8.10;99.90